Time;durP1;ratioP1;P1;durP2;ratioP2;P2;SDS_P1;SDS_P2;PMS_P1;PMS_P2;Temp;Humidity;BMP_temperature;BMP_pressure;BME280_temperature;BME280_humidity;BME280_pressure;Samples;Min_cycle;Max_cycle;Signal;HPM_P1;HPM_P2
2022/08/20 00:00:13;;;;;;;0.85;0.85;;;16.40;99.90;;;;;;5119310;28;20026;-80
2022/08/20 00:02:41;;;;;;;0.95;0.95;;;16.20;99.90;;;;;;5116871;28;20027;-72
2022/08/20 00:05:07;;;;;;;0.60;0.50;;;16.10;99.90;;;;;;5099038;28;20020;-72
2022/08/20 00:07:32;;;;;;;1.00;0.50;;;16.00;99.90;;;;;;5116715;28;20467;-71
2022/08/20 00:09:58;;;;;;;0.82;0.82;;;16.00;99.90;;;;;;5116702;28;20027;-72
2022/08/20 00:12:24;;;;;;;0.50;0.50;;;15.90;99.90;;;;;;5098920;28;20455;-84
2022/08/20 00:14:49;;;;;;;0.80;0.40;;;15.90;99.90;;;;;;5116942;28;20028;-83
2022/08/20 00:17:15;;;;;;;0.88;0.88;;;15.80;99.90;;;;;;5116768;28;20107;-81
2022/08/20 00:19:41;;;;;;;0.32;0.32;;;15.80;99.90;;;;;;5116855;28;20074;-72
2022/08/20 00:22:06;;;;;;;1.08;0.70;;;15.70;99.90;;;;;;5116632;28;20019;-81
2022/08/20 00:24:33;;;;;;;1.48;0.60;;;15.70;99.90;;;;;;5116498;28;20404;-82
2022/08/20 00:26:59;;;;;;;0.25;0.25;;;15.60;99.90;;;;;;5116190;28;20015;-78
2022/08/20 00:29:25;;;;;;;0.28;0.13;;;15.60;99.90;;;;;;5116175;28;20434;-85
2022/08/20 00:31:50;;;;;;;0.30;0.30;;;15.50;99.90;;;;;;5115206;28;20047;-71
2022/08/20 00:34:17;;;;;;;0.60;0.60;;;15.60;99.90;;;;;;5098143;28;20460;-83
2022/08/20 00:36:42;;;;;;;0.60;0.60;;;15.60;99.90;;;;;;5116147;28;20040;-75
2022/08/20 00:39:08;;;;;;;0.85;0.85;;;15.60;99.90;;;;;;5116089;28;20034;-76
2022/08/20 00:41:34;;;;;;;1.08;0.50;;;15.70;99.90;;;;;;5115865;28;20054;-71
2022/08/20 00:44:04;;;;;;;1.60;0.70;;;15.60;99.90;;;;;;5115635;28;20069;-71
2022/08/20 00:46:31;;;;;;;1.02;0.85;;;15.70;99.90;;;;;;5115762;28;20584;-73
2022/08/20 00:48:57;;;;;;;0.50;0.50;;;15.60;99.90;;;;;;5099564;28;20361;-70
2022/08/20 00:51:38;;;;;;;5.07;0.80;;;15.60;99.90;;;;;;5118029;28;20027;-74
2022/08/20 00:54:17;;;;;;;0.32;0.32;;;15.70;99.90;;;;;;5129159;28;20050;-73
2022/08/20 00:56:51;;;;;;;0.40;0.40;;;15.70;99.90;;;;;;5111292;28;20039;-71
2022/08/20 00:59:22;;;;;;;1.83;1.13;;;15.60;99.90;;;;;;5128055;28;20027;-70
2022/08/20 01:01:48;;;;;;;0.90;0.60;;;15.70;99.90;;;;;;5129945;28;20079;-72
2022/08/20 01:04:14;;;;;;;0.38;0.32;;;15.70;99.90;;;;;;5129220;28;20034;-77
2022/08/20 01:06:41;;;;;;;0.52;0.52;;;15.70;99.90;;;;;;5130721;28;20388;-75
2022/08/20 01:09:07;;;;;;;0.57;0.57;;;15.80;99.90;;;;;;5119801;28;20076;-70
2022/08/20 01:11:35;;;;;;;1.65;1.52;;;15.80;99.90;;;;;;5099300;28;20027;-70
2022/08/20 01:15:07;;;;;;;0.80;0.80;;;15.80;99.90;;;;;;5117593;28;20019;-70
2022/08/20 01:17:07;;;;;;;0.80;0.80;;;15.90;99.90;;;;;;5103791;28;20047;-71
2022/08/20 01:19:43;;;;;;;1.33;1.13;;;16.00;99.90;;;;;;5117516;28;20023;-71
2022/08/20 01:25:04;;;;;;;0.32;0.20;;;16.00;99.90;;;;;;5125954;28;20069;-71
2022/08/20 01:27:31;;;;;;;0.68;0.40;;;16.10;99.90;;;;;;5098056;28;20111;-78
2022/08/20 01:29:57;;;;;;;0.77;0.77;;;16.10;99.90;;;;;;5115100;28;20047;-80
2022/08/20 01:32:23;;;;;;;1.08;0.98;;;16.10;99.90;;;;;;5128873;28;20028;-73
2022/08/20 01:34:49;;;;;;;1.35;1.00;;;16.10;99.90;;;;;;5130302;28;20044;-70
2022/08/20 01:37:14;;;;;;;1.15;1.05;;;16.10;99.90;;;;;;5129640;28;20038;-70
2022/08/20 01:39:40;;;;;;;0.85;0.65;;;16.10;99.90;;;;;;5117517;28;20380;-81
2022/08/20 01:42:21;;;;;;;2.03;1.25;;;16.10;99.90;;;;;;5114926;28;20031;-83
2022/08/20 01:44:48;;;;;;;3.55;1.45;;;16.20;99.90;;;;;;5130674;28;20020;-71
2022/08/20 01:47:18;;;;;;;1.35;0.90;;;16.20;99.90;;;;;;5130253;28;20019;-75
2022/08/20 01:49:50;;;;;;;0.28;0.28;;;16.20;99.90;;;;;;5113653;28;20038;-70
2022/08/20 01:52:40;;;;;;;1.85;1.55;;;16.20;99.90;;;;;;5123855;28;20107;-71
2022/08/20 01:55:07;;;;;;;2.38;1.17;;;16.10;99.90;;;;;;5131625;28;20028;-70
2022/08/20 01:57:34;;;;;;;1.95;1.73;;;16.20;99.90;;;;;;5116443;28;20483;-73
2022/08/20 02:00:00;;;;;;;0.70;0.47;;;16.20;99.90;;;;;;5114459;28;20034;-85
2022/08/20 02:02:27;;;;;;;0.43;0.40;;;16.20;99.90;;;;;;5114792;28;20024;-72
2022/08/20 02:04:53;;;;;;;2.30;1.00;;;16.20;99.90;;;;;;5114333;28;20098;-72
2022/08/20 02:07:21;;;;;;;2.13;1.20;;;16.20;99.90;;;;;;5114601;28;20448;-72
2022/08/20 02:09:47;;;;;;;0.63;0.50;;;16.20;99.90;;;;;;5114272;28;20498;-82
2022/08/20 02:12:13;;;;;;;1.45;0.95;;;16.20;99.90;;;;;;5096387;28;20369;-81
2022/08/20 02:14:48;;;;;;;0.55;0.50;;;16.20;99.90;;;;;;5114256;28;20163;-80
2022/08/20 02:17:14;;;;;;;1.00;0.63;;;16.30;99.90;;;;;;5114445;28;20114;-82
2022/08/20 02:19:50;;;;;;;0.57;0.57;;;16.30;99.90;;;;;;5114283;28;20367;-80
2022/08/20 02:22:21;;;;;;;0.80;0.80;;;16.30;99.90;;;;;;5114412;28;20361;-81
2022/08/20 02:24:47;;;;;;;0.60;0.60;;;16.40;99.90;;;;;;5114314;28;20019;-72
2022/08/20 02:27:13;;;;;;;0.82;0.70;;;16.40;99.90;;;;;;5114040;28;20035;-73
2022/08/20 02:29:39;;;;;;;3.60;1.05;;;16.30;99.90;;;;;;5114087;28;20015;-84
2022/08/20 02:32:07;;;;;;;1.67;1.15;;;16.40;99.90;;;;;;5103981;28;20028;-72
2022/08/20 02:34:34;;;;;;;0.63;0.52;;;16.50;99.90;;;;;;5111785;28;20019;-77
2022/08/20 02:37:00;;;;;;;1.17;0.80;;;16.40;99.90;;;;;;5129976;28;20039;-79
2022/08/20 02:39:26;;;;;;;1.55;1.40;;;16.40;99.90;;;;;;5111750;28;20016;-71
2022/08/20 02:41:52;;;;;;;0.50;0.50;;;16.40;99.90;;;;;;5123063;28;20054;-72
2022/08/20 02:44:20;;;;;;;0.57;0.57;;;16.40;99.90;;;;;;5114045;28;20384;-73
2022/08/20 02:46:48;;;;;;;1.80;1.70;;;16.40;99.90;;;;;;5113923;28;20024;-77
2022/08/20 02:49:16;;;;;;;1.10;1.00;;;16.30;99.90;;;;;;5114139;28;20027;-86
2022/08/20 02:51:43;;;;;;;0.88;0.88;;;16.40;99.90;;;;;;5114215;28;20031;-72
2022/08/20 02:54:09;;;;;;;1.75;0.75;;;16.40;99.90;;;;;;5095708;28;20040;-82
2022/08/20 02:56:34;;;;;;;0.73;0.73;;;16.40;99.90;;;;;;5117483;28;20035;-83
2022/08/20 02:59:01;;;;;;;1.17;1.08;;;16.40;99.90;;;;;;5118155;28;20022;-84
2022/08/20 03:01:27;;;;;;;11.45;1.70;;;16.40;99.90;;;;;;5118868;28;20417;-71
2022/08/20 03:03:55;;;;;;;1.38;1.33;;;16.50;99.90;;;;;;5117371;28;20122;-71
2022/08/20 03:06:22;;;;;;;2.00;1.35;;;16.50;99.90;;;;;;5127455;28;20034;-83
2022/08/20 03:08:49;;;;;;;6.57;1.55;;;16.40;99.90;;;;;;5099668;28;20194;-72
2022/08/20 03:11:15;;;;;;;0.98;0.80;;;16.40;99.90;;;;;;5118013;28;20115;-74
2022/08/20 03:13:41;;;;;;;6.53;1.95;;;16.40;99.90;;;;;;5117696;28;20095;-80
2022/08/20 03:16:07;;;;;;;1.48;1.33;;;16.40;99.90;;;;;;5117658;28;20112;-84
2022/08/20 03:18:38;;;;;;;1.00;0.75;;;16.50;99.90;;;;;;5117692;28;20034;-72
2022/08/20 03:21:06;;;;;;;2.83;1.73;;;16.50;99.90;;;;;;5117618;28;20090;-82
2022/08/20 03:23:32;;;;;;;0.60;0.60;;;16.50;99.90;;;;;;5099340;28;20020;-85
2022/08/20 03:25:59;;;;;;;2.55;1.02;;;16.60;99.90;;;;;;5117470;28;20092;-77
2022/08/20 03:28:25;;;;;;;0.68;0.47;;;16.60;99.90;;;;;;5117443;28;20031;-78
2022/08/20 03:30:52;;;;;;;1.50;1.45;;;16.60;99.90;;;;;;5117967;28;20231;-84
2022/08/20 03:33:19;;;;;;;0.70;0.70;;;16.60;99.90;;;;;;5117599;28;20020;-76
2022/08/20 03:35:45;;;;;;;1.27;1.17;;;16.60;99.90;;;;;;5117524;28;20028;-78
2022/08/20 03:38:13;;;;;;;3.78;1.85;;;16.70;99.90;;;;;;5117156;28;20523;-71
2022/08/20 03:40:39;;;;;;;1.13;1.13;;;16.80;99.90;;;;;;5117255;28;20153;-79
2022/08/20 03:43:10;;;;;;;0.43;0.43;;;16.70;99.90;;;;;;5117256;28;20035;-73
2022/08/20 03:45:38;;;;;;;0.47;0.47;;;16.70;99.90;;;;;;5099076;28;20022;-71
2022/08/20 03:48:06;;;;;;;0.45;0.45;;;16.70;99.90;;;;;;5117421;28;20024;-84
2022/08/20 03:50:33;;;;;;;1.10;0.70;;;16.70;99.90;;;;;;5117038;28;20011;-84
2022/08/20 03:53:00;;;;;;;0.73;0.73;;;16.70;99.90;;;;;;5116747;28;20046;-76
2022/08/20 03:55:28;;;;;;;0.50;0.50;;;16.60;99.90;;;;;;5117063;28;20051;-72
2022/08/20 03:57:57;;;;;;;1.02;0.88;;;16.70;99.90;;;;;;5117084;28;20031;-72
2022/08/20 04:00:29;;;;;;;0.90;0.90;;;16.70;99.90;;;;;;5117040;28;20028;-83
2022/08/20 04:02:55;;;;;;;0.98;0.98;;;16.70;99.90;;;;;;5117074;28;20016;-72
2022/08/20 04:05:25;;;;;;;0.93;0.93;;;16.70;99.90;;;;;;5116929;28;20020;-86
2022/08/20 04:07:50;;;;;;;1.77;1.67;;;16.70;99.90;;;;;;5116745;28;20094;-76
2022/08/20 04:10:17;;;;;;;1.02;0.80;;;16.80;99.90;;;;;;5098459;28;20424;-75
2022/08/20 04:12:42;;;;;;;1.65;1.38;;;16.80;99.90;;;;;;5132320;28;20020;-70
2022/08/20 04:15:14;;;;;;;2.40;0.98;;;16.90;99.90;;;;;;5132981;28;20479;-70
2022/08/20 04:17:41;;;;;;;0.73;0.70;;;16.90;99.90;;;;;;5126251;28;20011;-71
2022/08/20 04:20:09;;;;;;;0.57;0.57;;;16.90;99.90;;;;;;5134073;28;20030;-71
2022/08/20 04:22:35;;;;;;;1.75;0.88;;;16.90;99.90;;;;;;5134184;28;20027;-71
2022/08/20 04:25:03;;;;;;;1.42;0.80;;;16.90;99.90;;;;;;5122033;28;20092;-83
2022/08/20 04:27:31;;;;;;;0.50;0.40;;;16.80;99.90;;;;;;5100194;28;20027;-71
2022/08/20 04:29:58;;;;;;;1.60;1.50;;;16.90;99.90;;;;;;5126935;28;20015;-85
2022/08/20 04:32:24;;;;;;;1.20;0.77;;;16.80;99.90;;;;;;5098291;28;20031;-83
2022/08/20 04:34:51;;;;;;;0.77;0.68;;;16.80;99.90;;;;;;5116303;28;20027;-83
2022/08/20 04:37:21;;;;;;;1.48;0.95;;;16.80;99.90;;;;;;5097983;28;20118;-85
2022/08/20 04:40:52;;;;;;;0.82;0.82;;;16.90;99.90;;;;;;5133385;28;20012;-79
2022/08/20 04:42:35;;;;;;;1.70;0.90;;;17.00;99.90;;;;;;5123031;28;20032;-71
2022/08/20 04:45:04;;;;;;;1.92;1.10;;;17.10;99.90;;;;;;5134494;28;20076;-71
2022/08/20 04:47:30;;;;;;;0.70;0.70;;;17.10;99.90;;;;;;5123444;28;20055;-89
2022/08/20 04:49:59;;;;;;;1.20;1.10;;;17.00;99.90;;;;;;5116076;28;20288;-72
2022/08/20 04:52:26;;;;;;;1.10;0.65;;;17.00;99.90;;;;;;5116296;28;20403;-82
2022/08/20 04:54:55;;;;;;;2.72;1.50;;;17.00;99.90;;;;;;5115462;28;20058;-82
2022/08/20 04:57:22;;;;;;;3.47;0.93;;;16.90;99.90;;;;;;5115580;28;20032;-83
2022/08/20 04:59:50;;;;;;;3.97;0.95;;;16.90;99.90;;;;;;5116271;28;20024;-85
2022/08/20 05:02:17;;;;;;;1.33;0.93;;;16.80;99.90;;;;;;5116008;28;20027;-88
2022/08/20 05:04:43;;;;;;;1.80;0.88;;;16.90;99.90;;;;;;5116276;28;20083;-75
2022/08/20 05:07:10;;;;;;;0.90;0.90;;;16.90;99.90;;;;;;5118444;28;20027;-82
2022/08/20 05:09:36;;;;;;;3.22;1.33;;;16.80;99.90;;;;;;5116514;28;20016;-88
2022/08/20 05:12:02;;;;;;;1.40;1.30;;;16.80;99.90;;;;;;5115760;28;20023;-83
2022/08/20 05:14:28;;;;;;;1.52;0.77;;;16.70;99.90;;;;;;5115863;28;20098;-85
2022/08/20 05:16:56;;;;;;;2.00;1.90;;;16.70;99.90;;;;;;5115256;28;20031;-74
2022/08/20 05:19:27;;;;;;;0.82;0.77;;;16.70;99.90;;;;;;5121621;28;20039;-73
2022/08/20 05:21:53;;;;;;;2.13;1.83;;;16.80;99.90;;;;;;5136087;28;20038;-73
2022/08/20 05:24:20;;;;;;;4.28;1.38;;;16.90;99.90;;;;;;5134817;28;20027;-74
2022/08/20 05:26:48;;;;;;;1.60;1.45;;;16.80;99.90;;;;;;5112943;28;20030;-73
2022/08/20 05:29:14;;;;;;;2.53;1.17;;;19.50;99.90;;;;;;5134279;28;20011;-75
2022/08/20 05:31:41;;;;;;;2.70;1.75;;;16.80;99.90;;;;;;5114372;28;20102;-74
2022/08/20 05:34:10;;;;;;;2.65;1.67;;;16.80;99.90;;;;;;5119276;28;20054;-76
2022/08/20 05:36:38;;;;;;;1.77;1.40;;;16.80;99.90;;;;;;5096938;28;20509;-87
2022/08/20 05:39:04;;;;;;;2.33;2.13;;;16.80;99.90;;;;;;5096978;28;20059;-74
2022/08/20 05:41:30;;;;;;;1.63;1.02;;;16.80;99.90;;;;;;5115243;28;20277;-72
2022/08/20 05:43:59;;;;;;;4.28;1.23;;;16.90;99.90;;;;;;5096867;28;20033;-84
2022/08/20 05:46:25;;;;;;;3.22;2.10;;;16.90;99.90;;;;;;5115047;28;20016;-73
2022/08/20 05:48:51;;;;;;;1.35;1.23;;;16.90;99.90;;;;;;5114887;28;20028;-83
2022/08/20 05:51:17;;;;;;;0.63;0.63;;;17.00;99.90;;;;;;5115006;28;20031;-82
2022/08/20 05:53:42;;;;;;;1.35;1.30;;;17.10;99.90;;;;;;5114425;28;20055;-77
2022/08/20 05:56:10;;;;;;;2.67;1.52;;;17.10;99.90;;;;;;5114788;28;20023;-85
2022/08/20 05:58:36;;;;;;;3.22;1.80;;;17.10;99.90;;;;;;5115199;28;20024;-84
2022/08/20 06:01:03;;;;;;;0.75;0.63;;;17.10;99.90;;;;;;5114438;28;20031;-72
2022/08/20 06:06:12;;;;;;;1.25;1.10;;;17.10;99.90;;;;;;5114589;28;20464;-86
2022/08/20 06:08:38;;;;;;;0.98;0.85;;;17.10;99.90;;;;;;5114537;28;20115;-76
2022/08/20 06:11:04;;;;;;;2.10;0.50;;;17.10;99.90;;;;;;5114230;28;20023;-74
2022/08/20 06:13:30;;;;;;;1.58;1.15;;;17.20;99.90;;;;;;5114315;28;20029;-87
2022/08/20 06:16:02;;;;;;;0.65;0.65;;;17.30;99.90;;;;;;5114561;28;20069;-85
2022/08/20 06:18:27;;;;;;;1.10;0.80;;;17.40;99.90;;;;;;5114446;28;20035;-82
2022/08/20 06:20:53;;;;;;;1.10;0.40;;;17.30;99.90;;;;;;5114331;28;20016;-82
2022/08/20 06:23:19;;;;;;;0.40;0.40;;;17.30;99.90;;;;;;5114593;28;20027;-78
2022/08/20 06:25:49;;;;;;;0.00;0.00;;;17.20;99.90;;;;;;5114808;28;20027;-83
2022/08/20 06:28:15;;;;;;;0.80;0.38;;;17.30;99.90;;;;;;5125899;28;20016;-88
2022/08/20 06:30:41;;;;;;;1.55;0.47;;;17.20;99.90;;;;;;5118397;28;20047;-73
2022/08/20 06:33:06;;;;;;;0.10;0.10;;;17.10;99.90;;;;;;5114534;28;20059;-86
2022/08/20 06:35:32;;;;;;;0.10;0.10;;;17.10;99.90;;;;;;5114019;28;20024;-84
2022/08/20 06:37:59;;;;;;;0.10;0.10;;;17.10;99.90;;;;;;5096158;28;20617;-73
2022/08/20 06:40:27;;;;;;;0.00;0.00;;;17.10;99.90;;;;;;5114324;28;20034;-72
2022/08/20 06:42:54;;;;;;;0.30;0.10;;;17.10;99.90;;;;;;5095960;28;20031;-77
2022/08/20 06:45:26;;;;;;;0.35;0.08;;;17.00;99.90;;;;;;5095993;28;20020;-85
2022/08/20 06:47:54;;;;;;;0.08;0.08;;;17.00;99.90;;;;;;5113849;28;20019;-76
2022/08/20 06:50:28;;;;;;;0.70;0.30;;;17.10;99.90;;;;;;5113937;28;20024;-85
2022/08/20 06:52:54;;;;;;;0.10;0.10;;;17.10;99.90;;;;;;5113785;28;20027;-80
2022/08/20 06:55:21;;;;;;;0.57;0.30;;;17.10;99.90;;;;;;5113820;28;20376;-73
2022/08/20 06:57:47;;;;;;;0.10;0.10;;;17.10;99.90;;;;;;5095408;28;20126;-81
2022/08/20 07:00:18;;;;;;;0.05;0.05;;;17.20;99.90;;;;;;5113950;28;20020;-80
2022/08/20 07:02:46;;;;;;;0.05;0.05;;;17.30;99.90;;;;;;5096002;28;20356;-87
2022/08/20 07:05:12;;;;;;;0.00;0.00;;;17.40;99.90;;;;;;5095742;28;20048;-76
2022/08/20 07:07:38;;;;;;;0.08;0.08;;;17.50;99.90;;;;;;5113660;28;20057;-82
2022/08/20 07:10:08;;;;;;;0.00;0.00;;;17.70;99.90;;;;;;5113719;28;20031;-73
2022/08/20 07:12:35;;;;;;;0.10;0.10;;;17.90;99.90;;;;;;5113670;28;20027;-85
2022/08/20 07:15:02;;;;;;;0.10;0.10;;;18.10;99.90;;;;;;5113761;28;20106;-81
2022/08/20 07:17:28;;;;;;;0.93;0.77;;;18.30;99.90;;;;;;5095436;28;20070;-85
2022/08/20 07:19:54;;;;;;;0.00;0.00;;;18.40;99.90;;;;;;5113648;28;20490;-88
2022/08/20 07:22:20;;;;;;;1.30;0.10;;;18.50;99.90;;;;;;5113619;28;20027;-73
2022/08/20 07:24:45;;;;;;;0.00;0.00;;;18.70;99.90;;;;;;5113599;28;20035;-78
2022/08/20 07:27:11;;;;;;;0.20;0.20;;;18.70;99.90;;;;;;5095314;28;20421;-76
2022/08/20 07:32:33;;;;;;;0.00;0.00;;;18.90;99.90;;;;;;5113666;28;20085;-87
2022/08/20 07:34:59;;;;;;;0.15;0.15;;;18.80;99.90;;;;;;5113520;28;20035;-78
2022/08/20 07:37:25;;;;;;;0.00;0.00;;;18.60;99.90;;;;;;5113583;28;20464;-72
2022/08/20 07:39:51;;;;;;;0.10;0.00;;;18.60;99.90;;;;;;5113449;28;20027;-81
2022/08/20 07:42:17;;;;;;;0.52;0.10;;;18.60;99.90;;;;;;5116250;28;20027;-86
2022/08/20 07:44:43;;;;;;;0.10;0.00;;;18.80;99.90;;;;;;5117165;28;20388;-80
2022/08/20 07:47:09;;;;;;;0.00;0.00;;;19.00;99.90;;;;;;5099029;28;20114;-78
2022/08/20 07:49:40;;;;;;;0.08;0.08;;;19.20;99.90;;;;;;5117142;28;20103;-73
2022/08/20 07:52:06;;;;;;;0.10;0.00;;;19.50;99.90;;;;;;5117432;28;20020;-76
2022/08/20 07:54:34;;;;;;;0.22;0.22;;;19.70;99.90;;;;;;5098693;28;20043;-80
2022/08/20 07:57:04;;;;;;;0.10;0.05;;;20.20;99.90;;;;;;5117102;28;20035;-85
2022/08/20 07:59:31;;;;;;;0.00;0.00;;;20.60;99.90;;;;;;5099373;28;20117;-72
2022/08/20 08:01:57;;;;;;;0.00;0.00;;;20.70;99.90;;;;;;5117620;28;20492;-82
2022/08/20 08:04:23;;;;;;;0.00;0.00;;;20.90;99.90;;;;;;5116971;28;20019;-72
2022/08/20 08:06:50;;;;;;;0.43;0.20;;;20.70;99.90;;;;;;5116553;28;20023;-82
2022/08/20 08:09:16;;;;;;;0.10;0.10;;;20.50;99.90;;;;;;5116544;28;20450;-78
2022/08/20 08:11:51;;;;;;;0.00;0.00;;;20.70;99.90;;;;;;5117024;28;20020;-72
2022/08/20 08:14:25;;;;;;;0.38;0.05;;;21.00;99.90;;;;;;5116775;28;20020;-75
2022/08/20 08:16:53;;;;;;;0.00;0.00;;;21.10;99.90;;;;;;5116691;28;20118;-73
2022/08/20 08:19:20;;;;;;;0.00;0.00;;;21.30;99.90;;;;;;5116778;28;20095;-84
2022/08/20 08:21:46;;;;;;;0.45;0.00;;;21.10;99.90;;;;;;5116633;28;20281;-78
2022/08/20 08:24:11;;;;;;;0.00;0.00;;;21.20;99.90;;;;;;5116475;28;20027;-78
2022/08/20 08:26:37;;;;;;;0.00;0.00;;;21.30;99.90;;;;;;5116232;28;20051;-74
2022/08/20 08:29:06;;;;;;;0.00;0.00;;;21.10;99.90;;;;;;5116482;28;20026;-84
2022/08/20 08:31:33;;;;;;;0.00;0.00;;;20.80;99.90;;;;;;5098298;28;20169;-73
2022/08/20 08:33:59;;;;;;;3.60;0.30;;;20.80;99.90;;;;;;5117204;28;20160;-76
2022/08/20 08:36:25;;;;;;;0.10;0.10;;;21.00;99.90;;;;;;5116315;28;20024;-73
2022/08/20 08:38:52;;;;;;;0.03;0.03;;;20.90;99.90;;;;;;5116230;28;20035;-80
2022/08/20 08:41:32;;;;;;;0.20;0.10;;;21.00;99.90;;;;;;5116150;28;20023;-76
2022/08/20 08:44:04;;;;;;;0.00;0.00;;;21.10;99.90;;;;;;5116113;28;20490;-84
2022/08/20 08:46:33;;;;;;;0.57;0.57;;;21.40;99.90;;;;;;5097932;28;20059;-88
2022/08/20 08:49:00;;;;;;;0.10;0.10;;;21.70;99.90;;;;;;5116530;28;20107;-73
2022/08/20 08:51:33;;;;;;;0.20;0.20;;;21.70;99.90;;;;;;5116581;28;20015;-87
2022/08/20 08:54:00;;;;;;;0.00;0.00;;;21.60;99.90;;;;;;5096992;28;20040;-73
2022/08/20 08:56:30;;;;;;;0.00;0.00;;;21.30;99.90;;;;;;5115934;28;20061;-72
2022/08/20 08:59:07;;;;;;;0.00;0.00;;;20.80;99.90;;;;;;5115772;28;20031;-89
2022/08/20 09:01:39;;;;;;;0.00;0.00;;;20.80;99.90;;;;;;5115793;28;20019;-89
2022/08/20 09:04:05;;;;;;;0.00;0.00;;;20.60;99.90;;;;;;5115751;28;20027;-89
2022/08/20 09:06:31;;;;;;;0.10;0.10;;;20.50;99.90;;;;;;5115878;28;20468;-89
2022/08/20 09:09:00;;;;;;;0.00;0.00;;;20.80;99.90;;;;;;5115812;28;20024;-81
2022/08/20 09:11:28;;;;;;;0.00;0.00;;;21.30;99.90;;;;;;5115617;28;20071;-81
2022/08/20 09:13:54;;;;;;;0.80;0.28;;;21.50;99.90;;;;;;5097494;28;20110;-76
2022/08/20 09:16:24;;;;;;;0.08;0.08;;;21.20;99.90;;;;;;5115493;28;20107;-76
2022/08/20 09:18:50;;;;;;;0.00;0.00;;;20.90;99.90;;;;;;5097137;28;20020;-84
2022/08/20 09:21:17;;;;;;;0.00;0.00;;;20.80;99.90;;;;;;5097210;28;20153;-84
2022/08/20 09:23:43;;;;;;;0.10;0.10;;;21.20;99.90;;;;;;5115183;28;20075;-71
2022/08/20 09:26:09;;;;;;;0.00;0.00;;;21.70;99.90;;;;;;5115173;28;20095;-77
2022/08/20 09:28:35;;;;;;;0.10;0.00;;;21.80;99.90;;;;;;5115202;28;20015;-73
2022/08/20 09:31:02;;;;;;;0.00;0.00;;;21.90;99.90;;;;;;5115332;28;20024;-77
2022/08/20 09:33:28;;;;;;;0.00;0.00;;;22.60;99.90;;;;;;5097232;28;20024;-87
2022/08/20 09:35:54;;;;;;;0.00;0.00;;;22.90;99.90;;;;;;5114921;28;20020;-76
2022/08/20 09:38:19;;;;;;;0.00;0.00;;;23.10;99.90;;;;;;5115197;28;20067;-71
2022/08/20 09:40:45;;;;;;;0.10;0.10;;;23.30;99.90;;;;;;5114860;28;20047;-72
2022/08/20 09:43:11;;;;;;;0.00;0.00;;;23.60;99.90;;;;;;5115171;28;20023;-72
2022/08/20 09:45:37;;;;;;;0.00;0.00;;;23.70;99.90;;;;;;5096907;28;20023;-71
2022/08/20 09:48:03;;;;;;;0.00;0.00;;;23.70;99.90;;;;;;5096690;28;20055;-72
2022/08/20 09:50:32;;;;;;;0.00;0.00;;;24.10;99.90;;;;;;5096675;28;20028;-85
2022/08/20 09:52:59;;;;;;;;;;;24.20;99.90;;;;;;5115152;28;20042;-85
2022/08/20 09:55:37;;;;;;;1.60;0.10;;;23.90;99.90;;;;;;5096728;28;19907;-73
2022/08/20 09:58:11;;;;;;;0.00;0.00;;;23.10;99.90;;;;;;5096515;28;20036;-86
2022/08/20 10:00:38;;;;;;;0.00;0.00;;;22.90;99.90;;;;;;5114810;28;20015;-71
2022/08/20 10:03:04;;;;;;;0.08;0.08;;;23.70;99.90;;;;;;5096918;28;20317;-81
2022/08/20 10:05:30;;;;;;;0.00;0.00;;;24.30;99.90;;;;;;5114298;28;20019;-75
2022/08/20 10:07:56;;;;;;;0.00;0.00;;;24.40;99.90;;;;;;5096360;28;20031;-76
2022/08/20 10:10:22;;;;;;;0.00;0.00;;;24.30;99.90;;;;;;5114746;28;20032;-79
2022/08/20 10:12:47;;;;;;;0.85;0.45;;;24.00;99.90;;;;;;5096416;28;20107;-85
2022/08/20 10:15:13;;;;;;;0.00;0.00;;;23.80;99.90;;;;;;5114700;28;20039;-71
2022/08/20 10:17:41;;;;;;;0.00;0.00;;;23.10;99.90;;;;;;5096055;28;20040;-71
2022/08/20 10:20:08;;;;;;;0.10;0.10;;;23.20;99.90;;;;;;5114413;28;20016;-75
2022/08/20 10:22:34;;;;;;;0.80;0.10;;;23.60;99.90;;;;;;5114122;28;20030;-77
2022/08/20 10:25:00;;;;;;;0.20;0.00;;;24.20;99.90;;;;;;5114563;28;20094;-87
2022/08/20 10:27:26;;;;;;;0.00;0.00;;;24.30;99.90;;;;;;5114549;28;20107;-75
2022/08/20 10:29:51;;;;;;;0.45;0.38;;;24.50;99.90;;;;;;5114463;28;20078;-84
2022/08/20 10:32:17;;;;;;;0.00;0.00;;;25.00;99.90;;;;;;5114592;28;20106;-72
2022/08/20 10:34:45;;;;;;;0.00;0.00;;;25.10;99.90;;;;;;5114163;28;20494;-82
2022/08/20 10:37:19;;;;;;;0.00;0.00;;;25.90;99.90;;;;;;5114179;28;20115;-72
2022/08/20 10:39:45;;;;;;;0.00;0.00;;;25.90;99.90;;;;;;5114036;28;20102;-75
2022/08/20 10:42:11;;;;;;;0.00;0.00;;;25.80;99.90;;;;;;5114168;28;20499;-78
2022/08/20 10:44:37;;;;;;;0.00;0.00;;;24.70;99.90;;;;;;5098127;28;20028;-82
2022/08/20 10:47:24;;;;;;;0.00;0.00;;;23.90;99.90;;;;;;5113800;28;20365;-71
2022/08/20 10:49:52;;;;;;;0.00;0.00;;;23.30;99.90;;;;;;5095753;28;20111;-80
2022/08/20 10:52:19;;;;;;;0.00;0.00;;;22.60;99.90;;;;;;5113943;28;20047;-73
2022/08/20 10:54:45;;;;;;;0.00;0.00;;;22.00;99.90;;;;;;5113463;28;20043;-71
2022/08/20 10:57:20;;;;;;;0.00;0.00;;;21.70;99.90;;;;;;5113500;28;20027;-71
2022/08/20 10:59:47;;;;;;;0.00;0.00;;;22.00;99.90;;;;;;5113889;28;20495;-71
2022/08/20 11:02:14;;;;;;;0.00;0.00;;;22.50;99.90;;;;;;5114007;28;20027;-75
2022/08/20 11:04:40;;;;;;;0.00;0.00;;;23.00;99.90;;;;;;5095729;28;20019;-81
2022/08/20 11:07:13;;;;;;;0.00;0.00;;;23.70;99.90;;;;;;5095730;28;20161;-84
2022/08/20 11:09:39;;;;;;;0.00;0.00;;;24.50;99.90;;;;;;5113729;28;20020;-77
2022/08/20 11:12:05;;;;;;;0.00;0.00;;;24.90;99.90;;;;;;5113769;28;20375;-78
2022/08/20 11:14:33;;;;;;;0.00;0.00;;;25.50;99.90;;;;;;5113791;28;20027;-73
2022/08/20 11:17:00;;;;;;;0.00;0.00;;;26.10;99.90;;;;;;5116036;28;20491;-80
2022/08/20 11:19:37;;;;;;;0.00;0.00;;;26.60;99.90;;;;;;5117969;28;20099;-72
2022/08/20 11:22:02;;;;;;;0.00;0.00;;;26.50;99.90;;;;;;5099560;28;20051;-82
2022/08/20 11:24:28;;;;;;;0.00;0.00;;;26.70;99.90;;;;;;5099415;28;20494;-84
2022/08/20 11:26:55;;;;;;;0.00;0.00;;;27.30;99.90;;;;;;5117663;28;20115;-80
2022/08/20 11:29:21;;;;;;;1.75;0.00;;;27.70;99.90;;;;;;5118169;28;20023;-85
2022/08/20 11:31:47;;;;;;;0.00;0.00;;;27.50;92.40;;;;;;5118055;28;20020;-83
2022/08/20 11:34:13;;;;;;;0.00;0.00;;;27.50;93.40;;;;;;5117801;28;20077;-76
2022/08/20 11:36:40;;;;;;;0.00;0.00;;;28.10;91.50;;;;;;5117465;28;20037;-73
2022/08/20 11:39:05;;;;;;;0.00;0.00;;;27.20;88.70;;;;;;5117340;28;20023;-83
2022/08/20 11:41:31;;;;;;;0.00;0.00;;;27.10;90.50;;;;;;5117586;28;20077;-84
2022/08/20 11:43:57;;;;;;;0.22;0.22;;;25.80;98.40;;;;;;5117509;28;20015;-85
2022/08/20 11:46:25;;;;;;;0.00;0.00;;;24.50;99.90;;;;;;5117223;28;20461;-83
2022/08/20 11:48:51;;;;;;;0.00;0.00;;;23.70;99.90;;;;;;5117195;28;20080;-71
2022/08/20 11:51:16;;;;;;;1.08;0.35;;;23.20;99.90;;;;;;5117101;28;20250;-73
2022/08/20 11:53:42;;;;;;;0.00;0.00;;;22.90;99.90;;;;;;5116828;28;20120;-77
2022/08/20 11:56:08;;;;;;;0.00;0.00;;;22.60;99.90;;;;;;5117226;28;20452;-70
2022/08/20 11:58:34;;;;;;;0.00;0.00;;;23.00;99.90;;;;;;5116797;28;20035;-71
2022/08/20 12:00:59;;;;;;;0.00;0.00;;;24.10;99.90;;;;;;5098701;28;20160;-80
2022/08/20 12:03:25;;;;;;;0.00;0.00;;;24.80;99.90;;;;;;5098659;28;20487;-76
2022/08/20 12:05:50;;;;;;;0.00;0.00;;;25.80;99.90;;;;;;5116967;28;20091;-80
2022/08/20 12:08:16;;;;;;;0.00;0.00;;;26.30;99.90;;;;;;5098640;28;20054;-72
2022/08/20 12:10:42;;;;;;;0.00;0.00;;;26.40;99.90;;;;;;5116769;28;20072;-80
2022/08/20 12:13:08;;;;;;;0.00;0.00;;;26.30;99.90;;;;;;5098603;28;20080;-82
2022/08/20 12:15:35;;;;;;;0.00;0.00;;;25.90;99.90;;;;;;5116942;28;20027;-78
2022/08/20 12:18:08;;;;;;;0.00;0.00;;;25.70;99.90;;;;;;5116316;28;20028;-76
2022/08/20 12:20:35;;;;;;;0.05;0.00;;;25.70;99.90;;;;;;5098229;28;20106;-81
2022/08/20 12:23:00;;;;;;;0.00;0.00;;;27.10;99.90;;;;;;5116431;28;20460;-79
2022/08/20 12:25:26;;;;;;;0.00;0.00;;;28.30;93.40;;;;;;5098220;28;20027;-79
2022/08/20 12:27:52;;;;;;;0.00;0.00;;;28.70;76.40;;;;;;5116309;28;20055;-73
2022/08/20 12:30:21;;;;;;;0.00;0.00;;;28.80;68.80;;;;;;5116517;28;20030;-78
2022/08/20 12:32:47;;;;;;;0.00;0.00;;;29.20;72.80;;;;;;5116376;28;20020;-75
2022/08/20 12:35:18;;;;;;;0.00;0.00;;;28.80;70.40;;;;;;5097956;28;20020;-81
2022/08/20 12:37:44;;;;;;;0.00;0.00;;;29.10;68.70;;;;;;5116031;28;20063;-73
2022/08/20 12:40:14;;;;;;;0.00;0.00;;;29.60;75.50;;;;;;5116033;28;20015;-77
2022/08/20 12:42:40;;;;;;;0.00;0.00;;;30.60;67.10;;;;;;5116065;28;20028;-78
2022/08/20 12:45:07;;;;;;;0.00;0.00;;;30.70;65.20;;;;;;5116139;28;20035;-79
2022/08/20 12:47:36;;;;;;;0.05;0.05;;;31.00;68.50;;;;;;5115789;28;20024;-77
2022/08/20 12:50:09;;;;;;;0.00;0.00;;;31.90;65.60;;;;;;5115841;28;20020;-80
2022/08/20 12:52:35;;;;;;;0.00;0.00;;;32.30;60.80;;;;;;5115861;28;20091;-81
2022/08/20 12:55:02;;;;;;;0.00;0.00;;;31.90;59.70;;;;;;5115878;28;20028;-77
2022/08/20 12:57:30;;;;;;;0.00;0.00;;;31.40;63.10;;;;;;5097352;28;20039;-78